Time;durP1;ratioP1;P1;durP2;ratioP2;P2;SDS_P1;SDS_P2;PMS_P1;PMS_P2;Temp;Humidity;BMP_temperature;BMP_pressure;BME280_temperature;BME280_humidity;BME280_pressure;Samples;Min_cycle;Max_cycle;Signal;HPM_P1;HPM_P2
2022/02/08 00:00:28;;;;;;;3.08;0.90;;;11.30;99.90;;;;;;4998147;28;20512;-58
2022/02/08 00:02:56;;;;;;;2.00;0.77;;;11.30;99.90;;;;;;4983016;28;20125;-58
2022/02/08 00:05:25;;;;;;;2.70;1.58;;;11.30;99.90;;;;;;4988029;28;20089;-58
2022/02/08 00:07:55;;;;;;;1.85;0.77;;;11.30;99.90;;;;;;4999341;28;20466;-59
2022/02/08 00:10:23;;;;;;;3.08;0.90;;;11.30;99.90;;;;;;4998557;28;20465;-59
2022/02/08 00:12:49;;;;;;;4.00;1.10;;;11.30;99.90;;;;;;5002195;28;20504;-58
2022/02/08 00:15:16;;;;;;;2.25;0.75;;;11.30;99.90;;;;;;5001594;28;20054;-58
2022/02/08 00:17:43;;;;;;;6.50;1.70;;;11.30;99.90;;;;;;4993787;28;20600;-58
2022/02/08 00:20:10;;;;;;;2.97;1.00;;;11.30;99.90;;;;;;4999619;28;20132;-58
2022/02/08 00:22:37;;;;;;;4.10;1.15;;;11.30;99.90;;;;;;4983143;28;20176;-58
2022/02/08 00:25:04;;;;;;;2.00;0.70;;;11.30;99.90;;;;;;5001128;28;20085;-59
2022/02/08 00:27:31;;;;;;;1.70;0.70;;;11.30;99.90;;;;;;5001743;28;20474;-59
2022/02/08 00:29:58;;;;;;;1.55;0.65;;;11.30;99.90;;;;;;4995975;28;20125;-61
2022/02/08 00:32:25;;;;;;;4.22;1.10;;;11.30;99.90;;;;;;4989640;28;20251;-58
2022/02/08 00:34:53;;;;;;;5.30;1.55;;;11.20;99.90;;;;;;4998938;28;20537;-58
2022/02/08 00:37:20;;;;;;;4.70;0.80;;;11.20;99.90;;;;;;5005165;28;20584;-58
2022/02/08 00:39:46;;;;;;;3.63;1.20;;;11.20;99.90;;;;;;4991168;28;20089;-58
2022/02/08 00:42:13;;;;;;;4.50;1.08;;;11.20;99.90;;;;;;5003655;28;20103;-58
2022/02/08 00:44:46;;;;;;;2.28;1.05;;;11.20;99.90;;;;;;5003834;28;20104;-58
2022/02/08 00:47:33;;;;;;;6.72;1.45;;;11.20;99.90;;;;;;4998608;28;20165;-59
2022/02/08 00:50:08;;;;;;;3.63;0.90;;;11.20;99.90;;;;;;4990750;28;20136;-58
2022/02/08 00:52:35;;;;;;;2.50;0.77;;;11.20;99.90;;;;;;4995904;28;20149;-58
2022/02/08 00:55:03;;;;;;;4.28;0.70;;;11.10;99.90;;;;;;5001394;28;20296;-58
2022/02/08 00:57:30;;;;;;;3.90;0.93;;;11.20;99.90;;;;;;4999138;28;20081;-58
2022/02/08 00:59:56;;;;;;;3.55;0.85;;;11.20;99.90;;;;;;4995593;28;20125;-58
2022/02/08 01:02:24;;;;;;;5.15;0.95;;;11.20;99.90;;;;;;4987885;28;20411;-59
2022/02/08 01:04:57;;;;;;;3.28;1.17;;;11.20;99.90;;;;;;4999333;28;20767;-59
2022/02/08 01:07:29;;;;;;;2.33;0.90;;;11.20;99.90;;;;;;4999527;28;20062;-59
2022/02/08 01:09:59;;;;;;;2.63;1.08;;;11.20;99.90;;;;;;4996961;28;20136;-59
2022/02/08 01:12:30;;;;;;;3.03;1.15;;;11.20;99.90;;;;;;5004118;28;20054;-59
2022/02/08 01:14:58;;;;;;;3.13;0.85;;;11.20;99.90;;;;;;5003397;28;20085;-59
2022/02/08 01:17:25;;;;;;;4.28;1.15;;;11.20;99.90;;;;;;5006775;28;20053;-59
2022/02/08 01:19:58;;;;;;;1.80;0.93;;;11.20;99.90;;;;;;5006881;28;20133;-59
2022/02/08 01:22:25;;;;;;;4.13;0.98;;;11.20;99.90;;;;;;4993998;28;20465;-59
2022/02/08 01:24:52;;;;;;;4.82;0.75;;;11.20;99.90;;;;;;5002837;28;20598;-60
2022/02/08 01:27:22;;;;;;;3.13;0.90;;;11.10;99.90;;;;;;5006386;28;20127;-60
2022/02/08 01:37:44;;;;;;;2.92;0.90;;;11.20;99.90;;;;;;5007290;28;20141;-59
2022/02/08 01:48:14;;;;;;;2.00;0.80;;;11.20;99.90;;;;;;5006806;28;20085;-59
2022/02/08 01:50:41;;;;;;;1.52;0.75;;;11.10;99.90;;;;;;5004094;28;20463;-59
2022/02/08 01:53:08;;;;;;;2.53;0.88;;;11.10;99.90;;;;;;5003891;28;20458;-59
2022/02/08 01:55:35;;;;;;;2.17;0.63;;;11.10;99.90;;;;;;4996713;28;20132;-60
2022/02/08 01:58:18;;;;;;;3.20;0.75;;;11.10;99.90;;;;;;5002994;28;20191;-59
2022/02/08 02:00:45;;;;;;;3.83;1.20;;;11.10;99.90;;;;;;5003082;28;20050;-58
2022/02/08 02:03:12;;;;;;;2.55;1.25;;;11.10;99.90;;;;;;4989624;28;20120;-58
2022/02/08 02:05:38;;;;;;;3.75;0.80;;;11.20;99.90;;;;;;5005268;28;20082;-58
2022/02/08 02:08:05;;;;;;;4.53;0.70;;;11.10;99.90;;;;;;5007913;28;20081;-58
2022/02/08 02:10:32;;;;;;;2.08;0.55;;;11.10;99.90;;;;;;5004387;28;20077;-58
2022/02/08 02:13:04;;;;;;;3.05;0.98;;;11.10;99.90;;;;;;4988113;28;20093;-58
2022/02/08 02:15:32;;;;;;;2.42;0.70;;;11.10;99.90;;;;;;4992903;28;20041;-59
2022/02/08 02:17:59;;;;;;;1.85;0.60;;;11.10;99.90;;;;;;4993055;28;20133;-59
2022/02/08 02:20:31;;;;;;;3.22;0.60;;;11.10;99.90;;;;;;5003720;28;20041;-59
2022/02/08 02:22:58;;;;;;;3.08;0.70;;;11.10;99.90;;;;;;4998794;28;20062;-58
2022/02/08 02:25:29;;;;;;;2.97;0.93;;;11.10;99.90;;;;;;5006322;28;20168;-57
2022/02/08 02:28:01;;;;;;;2.83;0.63;;;11.10;99.90;;;;;;5004986;28;20121;-58
2022/02/08 02:30:30;;;;;;;2.75;0.77;;;11.10;99.90;;;;;;4995600;28;20049;-58
2022/02/08 02:32:59;;;;;;;1.85;0.57;;;11.10;99.90;;;;;;5006627;28;20149;-58
2022/02/08 02:35:26;;;;;;;3.47;1.20;;;11.10;99.90;;;;;;5002803;28;20121;-58
2022/02/08 02:37:57;;;;;;;2.08;0.82;;;11.10;99.90;;;;;;5005401;28;20112;-57
2022/02/08 02:40:24;;;;;;;2.35;0.88;;;11.10;99.90;;;;;;5007716;28;20050;-57
2022/02/08 02:42:53;;;;;;;2.08;0.50;;;11.10;99.90;;;;;;5008460;28;20118;-57
2022/02/08 02:45:21;;;;;;;2.92;0.90;;;11.10;99.90;;;;;;4995718;28;20128;-58
2022/02/08 02:47:51;;;;;;;1.48;1.00;;;11.10;99.90;;;;;;5006318;28;20128;-59
2022/02/08 02:50:21;;;;;;;3.70;1.35;;;11.10;99.90;;;;;;5005682;28;20112;-58
2022/02/08 02:52:48;;;;;;;2.60;0.80;;;11.20;99.90;;;;;;5005135;28;20457;-58
2022/02/08 02:55:15;;;;;;;3.40;0.93;;;11.20;99.90;;;;;;5005931;28;20120;-58
2022/02/08 02:57:44;;;;;;;1.50;0.70;;;11.20;99.90;;;;;;5004760;28;20057;-58
2022/02/08 03:00:15;;;;;;;1.85;0.55;;;11.10;99.90;;;;;;5004987;28;20141;-58
2022/02/08 03:02:48;;;;;;;3.03;1.00;;;11.10;99.90;;;;;;5003986;28;20470;-58
2022/02/08 03:18:47;;;;;;;4.13;0.80;;;11.10;99.90;;;;;;4986520;28;20496;-59
2022/02/08 03:21:13;;;;;;;3.42;0.80;;;11.10;99.90;;;;;;4986420;28;20078;-59
2022/02/08 03:23:40;;;;;;;2.15;0.80;;;11.10;99.90;;;;;;4999289;28;20089;-57
2022/02/08 03:26:07;;;;;;;3.28;0.85;;;11.00;99.90;;;;;;4990481;28;20088;-58
2022/02/08 03:28:34;;;;;;;3.40;0.75;;;11.00;99.90;;;;;;4985622;28;20640;-58
2022/02/08 03:31:01;;;;;;;2.92;0.77;;;11.10;99.90;;;;;;4995373;28;20253;-58
2022/02/08 03:33:28;;;;;;;3.55;0.90;;;11.10;99.90;;;;;;5004671;28;20142;-59
2022/02/08 03:35:55;;;;;;;2.58;0.70;;;11.10;99.90;;;;;;4997588;28;20078;-58
2022/02/08 03:38:32;;;;;;;1.88;0.70;;;11.10;99.90;;;;;;4984856;28;20137;-59
2022/02/08 03:41:01;;;;;;;1.50;0.70;;;11.10;99.90;;;;;;4986498;28;20086;-58
2022/02/08 03:43:31;;;;;;;2.92;0.65;;;11.10;99.90;;;;;;4994204;28;20500;-58
2022/02/08 03:46:01;;;;;;;3.55;0.75;;;11.10;99.90;;;;;;4997799;28;20051;-58
2022/02/08 03:48:31;;;;;;;5.05;1.05;;;11.10;99.90;;;;;;4985645;28;20050;-59
2022/02/08 03:51:08;;;;;;;3.22;1.00;;;11.10;99.90;;;;;;4994073;28;20089;-59
2022/02/08 03:53:35;;;;;;;3.17;1.20;;;11.10;99.90;;;;;;5004052;28;20124;-59
2022/02/08 03:56:02;;;;;;;2.75;1.38;;;11.10;99.90;;;;;;4998582;28;20184;-58
2022/02/08 03:58:29;;;;;;;3.78;0.80;;;11.10;99.90;;;;;;4991447;28;20121;-59
2022/02/08 04:01:25;;;;;;;3.17;0.90;;;11.10;99.90;;;;;;4999697;28;20705;-59
2022/02/08 04:04:06;;;;;;;2.38;0.80;;;11.10;99.90;;;;;;4993524;28;20419;-58
2022/02/08 04:06:32;;;;;;;2.65;0.90;;;11.10;99.90;;;;;;4996131;28;20108;-58
2022/02/08 04:09:00;;;;;;;4.50;0.80;;;11.10;99.90;;;;;;5004927;28;20041;-58
2022/02/08 04:11:27;;;;;;;2.08;0.80;;;11.20;99.90;;;;;;5005389;28;20428;-59
2022/02/08 04:14:13;;;;;;;1.80;0.57;;;11.10;99.90;;;;;;4996683;28;20189;-59
2022/02/08 04:16:41;;;;;;;4.45;0.90;;;11.10;99.90;;;;;;4986757;28;20051;-59
2022/02/08 04:40:40;;;;;;;4.57;0.90;;;11.30;99.90;;;;;;4999284;28;20149;-58
2022/02/08 04:43:27;;;;;;;3.17;0.82;;;11.30;99.90;;;;;;4992382;28;20109;-59
2022/02/08 04:46:04;;;;;;;2.05;0.65;;;11.30;99.90;;;;;;4994442;28;20042;-59
2022/02/08 04:48:53;;;;;;;4.45;0.90;;;11.30;99.90;;;;;;4985930;28;20450;-59
2022/02/08 04:51:26;;;;;;;2.58;0.73;;;11.30;99.90;;;;;;4993541;28;20070;-59
2022/02/08 04:54:10;;;;;;;;;;;11.30;99.90;;;;;;4999410;28;20058;-59
2022/02/08 05:35:09;;;;;;;2.47;0.75;;;11.30;99.90;;;;;;5005737;28;20082;-59
2022/02/08 05:40:38;;;;;;;2.42;0.98;;;11.20;99.90;;;;;;4995395;28;20100;-59
2022/02/08 05:41:22;;;;;;;2.25;0.82;;;11.30;99.90;;;;;;5002662;28;20136;-56
2022/02/08 05:44:05;;;;;;;3.03;0.82;;;11.30;99.90;;;;;;5008189;28;20056;-58
2022/02/08 05:46:50;;;;;;;3.10;0.75;;;11.30;99.90;;;;;;5003560;28;20050;-59
2022/02/08 05:49:25;;;;;;;2.95;0.77;;;11.30;99.90;;;;;;4999696;28;20105;-57
2022/02/08 05:54:19;;;;;;;2.45;0.80;;;11.20;99.90;;;;;;4989066;28;20081;-57
2022/02/08 05:56:53;;;;;;;1.70;0.70;;;11.20;99.90;;;;;;4990237;28;20096;-57
2022/02/08 05:59:23;;;;;;;2.65;0.80;;;11.30;99.90;;;;;;4984317;28;20158;-57
2022/02/08 06:01:50;;;;;;;2.35;0.82;;;11.20;99.90;;;;;;4996567;28;20073;-59
2022/02/08 06:04:16;;;;;;;2.00;0.98;;;11.30;99.90;;;;;;4992269;28;20146;-59
2022/02/08 06:06:43;;;;;;;1.48;0.60;;;11.20;99.90;;;;;;4986155;28;20050;-59
2022/02/08 06:09:10;;;;;;;2.20;0.60;;;11.20;99.90;;;;;;4992219;28;20103;-59
2022/02/08 06:11:38;;;;;;;3.88;0.93;;;11.30;99.90;;;;;;4992227;28;20146;-59
2022/02/08 06:14:05;;;;;;;5.03;1.23;;;11.30;99.90;;;;;;4989352;28;20484;-58
2022/02/08 06:16:33;;;;;;;4.05;0.90;;;11.30;99.90;;;;;;4991557;28;20108;-58
2022/02/08 06:19:00;;;;;;;3.25;1.00;;;11.30;99.90;;;;;;4990968;28;20468;-58
2022/02/08 06:21:27;;;;;;;3.28;1.05;;;11.30;99.90;;;;;;4992753;28;20046;-58
2022/02/08 06:23:54;;;;;;;2.80;0.70;;;11.20;99.90;;;;;;4989510;28;20137;-58
2022/02/08 06:26:22;;;;;;;1.60;0.82;;;11.30;99.90;;;;;;4991831;28;20134;-58
2022/02/08 06:29:00;;;;;;;2.40;0.85;;;11.20;99.90;;;;;;4983679;28;20388;-58
2022/02/08 06:31:26;;;;;;;2.67;0.77;;;11.20;99.90;;;;;;5009977;28;20078;-58
2022/02/08 06:33:53;;;;;;;3.15;1.00;;;11.20;99.90;;;;;;4997322;28;20148;-58
2022/02/08 06:36:20;;;;;;;3.30;0.88;;;11.20;99.90;;;;;;5007319;28;20072;-57
2022/02/08 06:38:47;;;;;;;2.42;1.02;;;11.20;99.90;;;;;;5015036;28;20073;-58
2022/02/08 06:41:13;;;;;;;2.88;0.80;;;11.20;99.90;;;;;;4993628;28;20193;-58
2022/02/08 06:43:40;;;;;;;2.72;0.80;;;11.20;99.90;;;;;;4985078;28;20841;-58
2022/02/08 06:46:07;;;;;;;1.88;0.70;;;11.20;99.90;;;;;;4985555;28;20041;-58
2022/02/08 06:48:34;;;;;;;3.42;1.08;;;11.20;99.90;;;;;;4999463;28;20084;-58
2022/02/08 06:51:00;;;;;;;3.30;1.08;;;11.20;99.90;;;;;;4997408;28;20077;-59
2022/02/08 06:53:27;;;;;;;5.55;0.93;;;11.20;99.90;;;;;;5000015;28;20113;-58
2022/02/08 06:55:54;;;;;;;3.28;1.02;;;11.20;99.90;;;;;;4996650;28;20176;-58
2022/02/08 06:58:24;;;;;;;4.50;1.05;;;11.20;99.90;;;;;;4981630;28;20081;-57
2022/02/08 07:00:53;;;;;;;3.13;0.80;;;11.20;99.90;;;;;;4993245;28;20663;-58
2022/02/08 07:03:21;;;;;;;3.33;1.20;;;11.10;99.90;;;;;;4987510;28;20059;-57
2022/02/08 07:05:47;;;;;;;1.75;0.70;;;11.10;99.90;;;;;;4994964;28;20050;-58
2022/02/08 07:08:14;;;;;;;2.60;0.65;;;11.10;99.90;;;;;;5006209;28;20431;-59
2022/02/08 07:10:42;;;;;;;2.53;0.90;;;11.00;99.90;;;;;;4987451;28;20131;-59
2022/02/08 07:13:09;;;;;;;3.47;0.80;;;11.10;99.90;;;;;;4996319;28;20077;-59
2022/02/08 07:15:36;;;;;;;2.03;0.60;;;11.00;99.90;;;;;;4991159;28;20128;-59
2022/02/08 07:18:04;;;;;;;2.83;0.75;;;11.00;99.90;;;;;;4987566;28;20453;-59
2022/02/08 07:20:34;;;;;;;3.10;0.70;;;11.00;99.90;;;;;;4996195;28;20547;-59
2022/02/08 07:23:01;;;;;;;3.10;1.00;;;11.00;99.90;;;;;;4991070;28;20073;-59
2022/02/08 07:25:33;;;;;;;2.65;0.70;;;11.00;99.90;;;;;;4998667;28;20375;-59
2022/02/08 07:28:00;;;;;;;2.13;0.60;;;10.90;99.90;;;;;;5000180;28;20077;-60
2022/02/08 07:30:29;;;;;;;2.50;0.85;;;10.90;99.90;;;;;;4997664;28;20167;-60
2022/02/08 07:32:56;;;;;;;2.28;0.80;;;10.90;99.90;;;;;;4999139;28;20464;-59
2022/02/08 07:38:03;;;;;;;2.42;0.77;;;10.80;99.90;;;;;;4999540;28;20132;-59
2022/02/08 07:41:34;;;;;;;3.85;1.00;;;10.80;99.90;;;;;;4998556;28;20064;-59
2022/02/08 07:43:19;;;;;;;2.88;0.90;;;10.80;99.90;;;;;;4999370;28;20588;-59
2022/02/08 07:45:46;;;;;;;4.53;0.98;;;10.80;99.90;;;;;;4998110;28;20559;-60
2022/02/08 07:48:13;;;;;;;3.08;0.90;;;10.80;99.90;;;;;;4998992;28;20085;-60
2022/02/08 07:50:47;;;;;;;2.47;0.90;;;10.80;99.90;;;;;;4998757;28;20053;-59
2022/02/08 07:53:15;;;;;;;1.92;0.60;;;10.90;99.90;;;;;;4999562;28;20509;-59
2022/02/08 07:55:41;;;;;;;3.25;1.45;;;10.90;99.90;;;;;;4998632;28;20461;-59
2022/02/08 07:58:08;;;;;;;3.17;0.80;;;10.90;99.90;;;;;;4998974;28;20704;-60
2022/02/08 08:00:35;;;;;;;2.50;0.77;;;11.00;99.90;;;;;;4997429;28;20140;-60
2022/02/08 08:03:05;;;;;;;3.42;0.70;;;11.00;99.90;;;;;;4998870;28;20502;-59
2022/02/08 08:05:32;;;;;;;1.08;0.60;;;10.90;99.90;;;;;;4997310;28;20416;-60
2022/02/08 08:07:59;;;;;;;1.75;0.80;;;10.90;99.90;;;;;;4998106;28;20722;-59
2022/02/08 08:10:30;;;;;;;2.75;0.98;;;11.00;99.90;;;;;;4996912;28;20569;-60
2022/02/08 08:12:58;;;;;;;4.10;0.75;;;11.00;99.90;;;;;;4996437;28;20073;-59
2022/02/08 08:15:40;;;;;;;6.45;1.23;;;11.10;99.90;;;;;;4993185;28;20661;-59
2022/02/08 08:20:42;;;;;;;4.10;0.88;;;11.10;99.90;;;;;;4990534;28;20141;-60
2022/02/08 08:23:09;;;;;;;2.35;0.82;;;11.10;99.90;;;;;;4994974;28;20132;-59
2022/02/08 08:25:35;;;;;;;2.42;0.65;;;11.10;99.90;;;;;;4992679;28;20070;-60
2022/02/08 08:28:04;;;;;;;2.90;1.20;;;11.20;99.90;;;;;;4997061;28;20081;-60
2022/02/08 08:30:30;;;;;;;6.63;2.28;;;11.20;99.90;;;;;;4996513;28;20069;-60
2022/02/08 08:32:57;;;;;;;3.75;2.08;;;11.20;99.90;;;;;;4992336;28;20136;-60
2022/02/08 08:35:24;;;;;;;3.17;1.60;;;11.20;99.90;;;;;;4996580;28;20170;-60
2022/02/08 08:37:57;;;;;;;3.33;1.52;;;11.30;99.90;;;;;;4987104;28;20476;-60
2022/02/08 08:40:45;;;;;;;3.00;1.40;;;11.30;99.90;;;;;;5011186;28;20055;-60
2022/02/08 08:53:47;;;;;;;3.38;1.85;;;11.60;99.90;;;;;;4990082;28;20530;-58
2022/02/08 08:56:13;;;;;;;3.25;1.80;;;11.60;99.90;;;;;;5006557;28;20155;-61
2022/02/08 08:58:44;;;;;;;4.28;1.90;;;11.60;99.90;;;;;;5003895;28;20050;-59
2022/02/08 09:01:13;;;;;;;4.57;1.92;;;11.70;99.90;;;;;;5001384;28;20058;-59
2022/02/08 09:03:42;;;;;;;5.78;2.67;;;11.70;99.90;;;;;;4997660;28;20172;-59
2022/02/08 09:06:10;;;;;;;4.85;2.83;;;11.70;99.90;;;;;;4988146;28;20611;-60
2022/02/08 09:08:40;;;;;;;6.53;3.83;;;11.80;99.90;;;;;;4986891;28;20133;-59
2022/02/08 09:11:17;;;;;;;5.85;3.53;;;11.80;99.90;;;;;;4994967;28;20129;-59
2022/02/08 09:21:37;;;;;;;6.90;3.30;;;11.80;99.90;;;;;;4993185;28;20080;-59
2022/02/08 09:24:20;;;;;;;6.22;3.38;;;11.90;99.90;;;;;;4994162;28;20160;-59
2022/02/08 09:29:44;;;;;;;4.88;2.95;;;11.90;99.90;;;;;;4989732;28;20080;-58
2022/02/08 09:32:13;;;;;;;6.07;3.20;;;12.00;99.90;;;;;;4994509;28;20461;-59
2022/02/08 09:34:41;;;;;;;4.35;2.40;;;12.00;99.90;;;;;;4993195;28;20132;-58
2022/02/08 09:37:10;;;;;;;5.45;2.38;;;12.00;99.90;;;;;;4986129;28;20470;-59
2022/02/08 09:39:39;;;;;;;4.40;1.83;;;12.00;99.90;;;;;;4992372;28;20062;-59
2022/02/08 09:42:08;;;;;;;4.55;1.77;;;11.90;99.90;;;;;;4982443;28;20069;-59
2022/02/08 09:44:35;;;;;;;3.53;1.17;;;11.90;99.90;;;;;;4990448;28;20228;-59
2022/02/08 09:47:06;;;;;;;2.58;1.00;;;11.90;99.90;;;;;;4991423;28;20082;-58
2022/02/08 09:49:33;;;;;;;2.65;0.93;;;11.90;99.90;;;;;;4988296;28;20053;-59
2022/02/08 09:52:00;;;;;;;2.22;0.70;;;11.90;99.90;;;;;;4989426;28;20089;-59
2022/02/08 09:54:27;;;;;;;1.38;0.70;;;11.80;99.90;;;;;;4988214;28;20088;-58
2022/02/08 09:56:54;;;;;;;2.55;0.65;;;11.80;99.90;;;;;;4992754;28;20133;-59
2022/02/08 09:59:21;;;;;;;1.67;0.73;;;11.70;99.90;;;;;;4989923;28;20405;-59
2022/02/08 10:01:52;;;;;;;2.97;0.68;;;11.70;99.90;;;;;;4982266;28;20165;-59
2022/02/08 10:04:18;;;;;;;2.53;0.63;;;11.70;99.90;;;;;;4985772;28;20550;-59
2022/02/08 10:06:45;;;;;;;1.52;0.55;;;11.70;99.90;;;;;;4996194;28;20081;-60
2022/02/08 10:09:12;;;;;;;2.00;0.65;;;11.70;99.90;;;;;;4986836;28;20534;-59
2022/02/08 10:12:00;;;;;;;1.58;0.57;;;11.70;99.90;;;;;;5000901;28;20261;-58
2022/02/08 10:22:33;;;;;;;2.85;0.70;;;11.60;99.90;;;;;;4998700;28;20052;-59
2022/02/08 10:25:03;;;;;;;1.70;0.63;;;11.70;99.90;;;;;;4990485;28;20167;-59
2022/02/08 10:28:00;;;;;;;2.20;0.90;;;11.70;99.90;;;;;;4993752;28;20547;-59
2022/02/08 10:38:43;;;;;;;2.70;0.80;;;11.90;99.90;;;;;;4989711;28;20074;-59
2022/02/08 10:41:18;;;;;;;2.85;0.82;;;12.00;99.90;;;;;;4989973;28;20497;-59
2022/02/08 10:44:05;;;;;;;2.05;0.95;;;12.20;99.90;;;;;;4995602;28;20473;-59
2022/02/08 10:46:32;;;;;;;2.92;1.10;;;12.30;99.90;;;;;;5000046;28;20060;-59
2022/02/08 10:49:04;;;;;;;3.15;0.80;;;12.40;99.90;;;;;;5001917;28;20173;-59
2022/02/08 10:51:36;;;;;;;2.70;0.77;;;12.50;99.90;;;;;;4991950;28;20167;-59
2022/02/08 10:54:07;;;;;;;2.78;0.90;;;12.50;99.90;;;;;;5000455;28;20500;-59
2022/02/08 10:56:37;;;;;;;2.72;0.93;;;12.50;99.90;;;;;;5004404;28;20232;-59
2022/02/08 11:02:16;;;;;;;3.88;1.02;;;12.70;99.90;;;;;;4991039;28;20759;-59
2022/02/08 11:07:41;;;;;;;1.90;1.23;;;12.70;99.90;;;;;;5006753;28;20143;-58
2022/02/08 11:12:58;;;;;;;1.05;0.50;;;12.70;99.90;;;;;;4997029;28;20560;-59
2022/02/08 11:15:43;;;;;;;3.00;0.90;;;12.80;99.90;;;;;;4996849;28;20088;-59
2022/02/08 11:21:05;;;;;;;2.28;0.90;;;12.70;99.90;;;;;;4997092;28;20049;-59
2022/02/08 11:23:36;;;;;;;3.25;0.93;;;12.70;99.90;;;;;;4993834;28;20133;-59
2022/02/08 11:26:03;;;;;;;2.92;0.85;;;12.80;99.90;;;;;;4984425;28;20097;-59
2022/02/08 11:28:50;;;;;;;2.33;0.65;;;12.80;99.90;;;;;;4987048;28;20136;-58
2022/02/08 11:31:30;;;;;;;2.17;0.57;;;12.90;99.90;;;;;;4988930;28;20481;-59
2022/02/08 11:53:19;;;;;;;1.98;0.57;;;13.00;99.90;;;;;;4992064;28;20138;-59
2022/02/08 12:48:46;;;;;;;1.77;1.00;;;13.10;99.90;;;;;;5001514;28;20568;-59
2022/02/08 12:57:01;;;;;;;3.13;0.80;;;13.30;99.90;;;;;;4995821;28;20160;-59
2022/02/08 14:13:39;;;;;;;2.35;0.93;;;13.00;99.90;;;;;;4993698;28;20046;-59
2022/02/08 14:16:35;;;;;;;1.88;1.00;;;12.90;99.90;;;;;;4991513;28;20075;-59
2022/02/08 14:21:51;;;;;;;3.00;1.00;;;13.00;99.90;;;;;;4998483;28;20107;-59
2022/02/08 14:24:33;;;;;;;0.77;0.38;;;12.90;99.90;;;;;;4993944;28;20795;-59
2022/02/08 14:35:07;;;;;;;2.47;0.68;;;12.90;99.90;;;;;;5000545;28;20070;-58
2022/02/08 14:48:57;;;;;;;1.48;0.70;;;12.80;99.90;;;;;;4999075;28;20470;-59
2022/02/08 15:10:36;;;;;;;2.92;1.08;;;12.60;99.90;;;;;;4998508;28;20173;-59
2022/02/08 15:13:03;;;;;;;2.75;1.85;;;12.60;99.90;;;;;;5005928;28;20129;-59
2022/02/08 15:18:37;;;;;;;3.30;2.00;;;12.60;99.90;;;;;;4996821;28;20463;-59
2022/02/08 15:21:07;;;;;;;5.00;2.30;;;12.60;99.90;;;;;;4997528;28;20465;-59
2022/02/08 15:23:34;;;;;;;4.60;2.50;;;12.60;99.90;;;;;;4992366;28;20133;-59
2022/02/08 15:26:01;;;;;;;4.25;1.67;;;12.50;99.90;;;;;;4994906;28;20081;-59
2022/02/08 15:28:29;;;;;;;2.80;1.63;;;12.50;99.90;;;;;;5002440;28;20037;-57
2022/02/08 15:30:56;;;;;;;3.75;1.20;;;12.60;99.90;;;;;;5003799;28;20627;-59
2022/02/08 15:33:23;;;;;;;2.85;1.40;;;12.50;99.90;;;;;;4989484;28;20189;-58
2022/02/08 15:35:50;;;;;;;3.03;1.63;;;12.50;99.90;;;;;;4986987;28;20160;-58
2022/02/08 15:38:17;;;;;;;2.83;1.10;;;12.50;99.90;;;;;;4999545;28;20129;-58
2022/02/08 15:40:45;;;;;;;2.63;1.33;;;12.50;99.90;;;;;;4999009;28;20136;-58
2022/02/08 15:43:14;;;;;;;3.60;1.15;;;12.40;99.90;;;;;;4999115;28;20257;-58
2022/02/08 15:45:49;;;;;;;4.53;2.25;;;12.40;99.90;;;;;;4997160;28;20092;-58
2022/02/08 15:48:20;;;;;;;4.78;2.47;;;12.40;99.90;;;;;;4999206;28;20144;-57
2022/02/08 15:51:03;;;;;;;6.95;2.70;;;12.40;99.90;;;;;;4998779;28;20441;-58
2022/02/08 15:56:28;;;;;;;3.53;1.75;;;12.40;99.90;;;;;;4994706;28;20082;-58
2022/02/08 16:05:12;;;;;;;2.45;1.30;;;12.30;99.90;;;;;;4999120;28;20475;-58
2022/02/08 16:10:03;;;;;;;3.22;1.05;;;12.30;99.90;;;;;;4998310;28;20132;-58
2022/02/08 16:12:49;;;;;;;2.90;1.00;;;12.30;99.90;;;;;;4997291;28;20294;-58
2022/02/08 16:18:11;;;;;;;1.33;0.70;;;12.30;99.90;;;;;;4998525;28;20068;-58
2022/02/08 16:25:54;;;;;;;2.65;1.00;;;12.30;99.90;;;;;;4998539;28;20058;-57
2022/02/08 16:28:54;;;;;;;1.75;0.80;;;12.30;99.90;;;;;;4997462;28;20145;-57
2022/02/08 16:51:02;;;;;;;1.70;0.73;;;12.20;99.90;;;;;;4997283;28;20397;-57
2022/02/08 16:58:24;;;;;;;1.40;0.80;;;12.10;99.90;;;;;;4998376;28;20498;-58
2022/02/08 17:00:55;;;;;;;2.05;0.80;;;12.10;99.90;;;;;;4997631;28;20054;-59
2022/02/08 17:03:41;;;;;;;1.10;0.57;;;12.10;99.90;;;;;;4998292;28;20057;-58
2022/02/08 17:06:09;;;;;;;1.60;0.75;;;12.10;99.90;;;;;;4997816;28;20174;-58
2022/02/08 17:08:36;;;;;;;1.20;0.68;;;12.10;99.90;;;;;;4998088;28;20144;-57
2022/02/08 17:11:03;;;;;;;1.13;0.47;;;12.00;99.90;;;;;;4998126;28;20323;-58
2022/02/08 17:14:47;;;;;;;1.92;0.70;;;12.10;99.90;;;;;;4996889;28;20073;-57
2022/02/08 17:16:38;;;;;;;1.88;0.70;;;12.00;99.90;;;;;;4996791;28;20075;-58
2022/02/08 17:47:43;;;;;;;1.92;0.75;;;11.90;99.90;;;;;;5001177;28;20133;-58
2022/02/08 17:49:50;;;;;;;2.20;0.70;;;11.90;99.90;;;;;;4993491;28;20132;-58
2022/02/08 17:52:17;;;;;;;2.60;0.80;;;11.80;99.90;;;;;;5001575;28;20046;-57
2022/02/08 17:54:43;;;;;;;2.35;1.00;;;11.80;99.90;;;;;;4994801;28;20084;-57
2022/02/08 17:57:11;;;;;;;2.88;0.80;;;11.80;99.90;;;;;;4996844;28;20133;-58
2022/02/08 17:59:37;;;;;;;2.47;1.10;;;11.80;99.90;;;;;;4999928;28;20145;-57
2022/02/08 18:02:06;;;;;;;1.13;0.75;;;11.70;99.90;;;;;;5001714;28;20085;-58
2022/02/08 18:04:32;;;;;;;3.05;1.17;;;11.80;99.90;;;;;;5000340;28;20100;-57
2022/02/08 18:06:59;;;;;;;2.78;0.95;;;11.80;99.90;;;;;;4997928;28;20137;-58
2022/02/08 18:09:28;;;;;;;2.88;1.13;;;11.80;99.90;;;;;;5001014;28;20137;-58
2022/02/08 18:11:59;;;;;;;2.28;0.90;;;11.80;99.90;;;;;;4998998;28;20549;-59
2022/02/08 18:14:28;;;;;;;2.03;1.02;;;11.80;99.90;;;;;;4992868;28;20129;-58
2022/02/08 18:17:11;;;;;;;3.47;1.05;;;11.70;99.90;;;;;;4997332;28;20208;-58
2022/02/08 18:19:41;;;;;;;2.22;0.90;;;11.70;99.90;;;;;;4992892;28;20575;-58
2022/02/08 18:22:23;;;;;;;4.18;1.02;;;11.70;99.90;;;;;;4994626;28;20057;-58
2022/02/08 18:58:07;;;;;;;3.28;1.67;;;11.60;99.90;;;;;;4998705;28;20148;-58
2022/02/08 19:08:53;;;;;;;4.65;2.38;;;11.50;99.90;;;;;;4998731;28;20536;-58
2022/02/08 19:16:42;;;;;;;3.28;1.75;;;11.50;99.90;;;;;;4991536;28;20105;-58
2022/02/08 19:21:45;;;;;;;2.05;1.45;;;11.30;99.90;;;;;;4996910;28;20104;-59
2022/02/08 19:24:18;;;;;;;3.75;1.38;;;11.30;99.90;;;;;;4996541;28;20473;-59
2022/02/08 19:26:47;;;;;;;2.95;1.42;;;11.30;99.90;;;;;;4999832;28;20081;-59
2022/02/08 19:29:14;;;;;;;1.75;1.10;;;11.30;99.90;;;;;;4993389;28;20157;-58
2022/02/08 19:31:42;;;;;;;3.47;1.48;;;11.30;99.90;;;;;;4989143;28;20054;-58
2022/02/08 19:34:08;;;;;;;4.07;1.63;;;11.30;99.90;;;;;;4982732;28;20285;-58
2022/02/08 19:36:36;;;;;;;1.67;1.13;;;11.30;99.90;;;;;;4992628;28;20065;-58
2022/02/08 19:39:04;;;;;;;3.28;1.30;;;11.30;99.90;;;;;;4988853;28;20141;-58
2022/02/08 19:41:31;;;;;;;2.45;1.05;;;11.20;99.90;;;;;;4993535;28;20172;-58
2022/02/08 19:43:58;;;;;;;2.75;1.40;;;11.20;99.90;;;;;;4985590;28;20167;-58
2022/02/08 19:46:25;;;;;;;3.63;1.30;;;11.30;99.90;;;;;;4992311;28;20054;-59
2022/02/08 19:48:52;;;;;;;2.17;1.08;;;11.30;99.90;;;;;;4989561;28;20046;-58
2022/02/08 19:51:19;;;;;;;2.97;0.98;;;11.20;99.90;;;;;;4997555;28;20128;-58
2022/02/08 19:53:48;;;;;;;2.25;1.08;;;11.20;99.90;;;;;;5007175;28;20045;-59
2022/02/08 19:58:49;;;;;;;1.98;1.00;;;11.20;99.90;;;;;;4981568;28;20464;-57
2022/02/08 20:01:30;;;;;;;3.75;1.10;;;11.20;99.90;;;;;;5011214;28;20140;-57
2022/02/08 20:04:03;;;;;;;2.28;1.00;;;11.20;99.90;;;;;;4991275;28;20358;-58
2022/02/08 20:06:31;;;;;;;2.80;1.52;;;11.20;99.90;;;;;;4992380;28;20046;-58
2022/02/08 20:08:59;;;;;;;2.33;1.15;;;11.20;99.90;;;;;;4992906;28;20073;-58
2022/02/08 20:11:26;;;;;;;2.47;1.40;;;11.20;99.90;;;;;;4993153;28;20145;-58
2022/02/08 20:13:56;;;;;;;2.03;1.00;;;11.10;99.90;;;;;;4988294;28;20675;-58
2022/02/08 20:16:27;;;;;;;2.30;1.02;;;11.10;99.90;;;;;;4988913;28;20157;-59
2022/02/08 20:18:57;;;;;;;1.42;0.80;;;11.20;99.90;;;;;;4989863;28;20513;-59
2022/02/08 20:21:25;;;;;;;3.33;1.10;;;11.20;99.90;;;;;;4987638;28;20417;-58
2022/02/08 20:23:54;;;;;;;3.35;1.35;;;11.20;99.90;;;;;;4992840;28;20527;-59
2022/02/08 20:26:25;;;;;;;2.28;1.10;;;11.20;99.90;;;;;;4996263;28;20128;-58
2022/02/08 20:28:55;;;;;;;2.88;0.80;;;11.20;99.90;;;;;;4983843;28;20142;-59
2022/02/08 20:31:23;;;;;;;2.28;0.90;;;11.20;99.90;;;;;;4990585;28;20101;-58
2022/02/08 20:33:50;;;;;;;2.22;0.90;;;11.20;99.90;;;;;;4988787;28;20483;-58
2022/02/08 20:36:17;;;;;;;2.28;1.10;;;11.20;99.90;;;;;;4985537;28;20177;-58
2022/02/08 20:38:48;;;;;;;2.25;1.10;;;11.20;99.90;;;;;;4995889;28;20148;-59
2022/02/08 20:41:16;;;;;;;3.88;1.73;;;11.10;99.90;;;;;;4990896;28;20149;-59
2022/02/08 20:43:43;;;;;;;3.22;1.20;;;11.10;99.90;;;;;;4985878;28;20078;-58
2022/02/08 20:46:10;;;;;;;1.85;1.00;;;11.00;99.90;;;;;;4992685;28;20051;-58
2022/02/08 20:48:37;;;;;;;3.45;1.60;;;11.00;99.90;;;;;;4998123;28;20420;-58
2022/02/08 20:51:04;;;;;;;2.78;1.20;;;10.90;99.90;;;;;;4989253;28;20141;-58